createdAt,value
2023-02-16T00:03:17.941Z,91.70
2023-02-16T00:08:20.040Z,92.20
2023-02-16T00:13:44.669Z,95.90
2023-02-16T00:18:48.352Z,97.00
2023-02-16T00:23:50.723Z,92.60
2023-02-16T00:28:58.492Z,94.90
2023-02-16T00:34:25.488Z,94.90
2023-02-16T00:39:29.912Z,96.40
2023-02-16T00:54:57.453Z,95.40
2023-02-16T01:10:40.706Z,96.10
2023-02-16T01:15:44.480Z,96.10
2023-02-16T01:20:47.884Z,96.10
2023-02-16T11:33:43.139Z,96.20
2023-02-16T11:39:23.420Z,38.80
2023-02-16T11:44:35.792Z,36.30
2023-02-16T11:49:41.443Z,34.20
2023-02-16T11:54:57.564Z,37.20
2023-02-16T12:00:04.997Z,36.60
2023-02-16T12:05:28.933Z,34.90
2023-02-16T12:10:45.822Z,35.80
2023-02-16T12:16:14.163Z,34.90
2023-02-16T12:21:41.313Z,35.40
2023-02-16T12:26:50.068Z,35.20
2023-02-16T12:32:16.091Z,36.70
2023-02-16T12:38:03.726Z,36.10
2023-02-16T12:43:47.479Z,35.60
2023-02-16T12:49:01.305Z,37.30
2023-02-16T12:54:27.808Z,38.60
2023-02-16T12:59:50.272Z,41.70
2023-02-16T13:05:31.942Z,42.10
2023-02-16T13:10:55.559Z,43.20
2023-02-16T13:16:24.045Z,45.20
2023-02-16T13:22:04.480Z,39.40
2023-02-16T13:27:20.983Z,39.90
2023-02-16T13:32:48.679Z,42.30
2023-02-16T13:38:30.848Z,44.40
2023-02-16T13:44:02.141Z,44.30
2023-02-16T13:49:05.349Z,44.30
2023-02-16T13:54:23.916Z,48.50
2023-02-16T13:59:26.352Z,48.20
2023-02-16T14:04:31.389Z,46.20
2023-02-16T14:09:39.801Z,48.80
2023-02-16T14:14:41.869Z,51.80
2023-02-16T14:20:13.889Z,52.00
2023-02-16T14:25:24.459Z,51.80
2023-02-16T14:30:51.955Z,47.40
2023-02-16T23:32:46.861Z,48.90
2023-02-16T23:37:49.640Z,61.30
2023-02-16T23:42:51.651Z,61.00
2023-02-16T23:47:53.766Z,61.60
2023-02-16T23:52:56.084Z,62.00
2023-02-16T23:57:58.288Z,62.10
